Time;durP1;ratioP1;P1;durP2;ratioP2;P2;SDS_P1;SDS_P2;PMS_P1;PMS_P2;Temp;Humidity;BMP_temperature;BMP_pressure;BME280_temperature;BME280_humidity;BME280_pressure;Samples;Min_cycle;Max_cycle;Signal;HPM_P1;HPM_P2
2021/12/09 00:01:51;;;;;;;60.13;37.60;;;5.80;1.00;7.60;99184.00;;;;5052992;28;20472;-76
2021/12/09 00:04:28;;;;;;;56.80;36.40;;;5.70;1.00;7.70;99153.00;;;;5039421;28;20452;-76
2021/12/09 00:06:59;;;;;;;58.10;37.93;;;5.70;1.00;7.70;99177.00;;;;5057166;28;20456;-79
2021/12/09 00:09:27;;;;;;;52.70;35.90;;;5.80;1.00;7.60;99174.00;;;;5039718;28;20440;-76
2021/12/09 00:11:56;;;;;;;48.20;34.77;;;5.80;1.00;7.60;99173.00;;;;5056120;28;20475;-76
2021/12/09 00:14:27;;;;;;;53.10;37.97;;;5.80;1.00;7.60;99178.00;;;;5040183;28;20523;-76
2021/12/09 00:17:05;;;;;;;48.03;35.37;;;5.80;1.00;7.60;99179.00;;;;5056171;28;20814;-77
2021/12/09 00:19:34;;;;;;;48.07;34.33;;;5.70;1.00;7.60;99167.00;;;;5038236;28;20474;-77
2021/12/09 00:22:04;;;;;;;45.27;34.20;;;5.70;1.00;7.60;99186.00;;;;5045993;28;21016;-76
2021/12/09 00:24:32;;;;;;;46.33;35.43;;;5.80;1.00;7.60;99188.00;;;;5056025;28;20479;-75
2021/12/09 00:27:01;;;;;;;42.20;32.70;;;5.70;1.00;7.70;99202.00;;;;5054790;28;20842;-76
2021/12/09 00:29:29;;;;;;;42.77;33.03;;;5.80;1.00;7.80;99180.00;;;;5054357;28;20460;-78
2021/12/09 00:31:59;;;;;;;41.00;31.27;;;5.80;1.00;7.80;99172.00;;;;5048406;28;21023;-76
2021/12/09 00:34:31;;;;;;;42.60;31.30;;;5.80;1.00;7.90;99204.00;;;;5056090;28;20444;-78
2021/12/09 00:37:17;;;;;;;35.60;29.30;;;5.90;1.00;7.80;99196.00;;;;5054545;28;20447;-76
2021/12/09 00:39:47;;;;;;;37.30;31.37;;;5.90;1.00;7.80;99184.00;;;;5055061;28;20460;-75
2021/12/09 00:42:16;;;;;;;37.90;31.80;;;5.90;1.00;7.70;99200.00;;;;5055259;28;20468;-76
2021/12/09 00:44:44;;;;;;;35.23;28.83;;;5.90;1.00;7.80;99206.00;;;;5058388;28;20454;-77
2021/12/09 00:47:14;;;;;;;40.67;30.27;;;5.90;1.00;7.80;99199.00;;;;5052075;28;20459;-75
2021/12/09 00:49:42;;;;;;;33.47;28.77;;;5.90;1.00;7.80;99197.00;;;;5056606;28;20462;-76
2021/12/09 00:52:12;;;;;;;35.80;30.70;;;5.80;1.00;7.80;99193.00;;;;5055243;28;20460;-76
2021/12/09 00:54:42;;;;;;;35.00;29.57;;;5.90;1.00;7.80;99196.00;;;;5055213;28;20824;-76
2021/12/09 00:57:11;;;;;;;33.13;29.53;;;5.90;1.00;7.70;99195.00;;;;5054910;28;20420;-75
2021/12/09 00:59:40;;;;;;;34.73;27.87;;;5.90;1.00;7.80;99190.00;;;;5054037;28;20472;-75
2021/12/09 01:02:10;;;;;;;35.47;30.00;;;5.80;1.00;7.80;99141.00;;;;5054973;28;20575;-75
2021/12/09 01:04:40;;;;;;;35.07;29.17;;;5.90;1.00;7.90;99180.00;;;;5056486;28;20448;-77
2021/12/09 01:07:09;;;;;;;32.37;27.37;;;5.80;1.00;8.00;99198.00;;;;5055554;28;20420;-75
2021/12/09 01:09:38;;;;;;;36.03;27.43;;;5.90;1.00;8.00;99153.00;;;;5056811;28;20472;-75
2021/12/09 01:12:09;;;;;;;31.40;28.03;;;5.90;1.00;8.10;99161.00;;;;5040629;28;20531;-76
2021/12/09 01:14:38;;;;;;;33.53;28.77;;;6.00;1.00;8.10;99206.00;;;;5076918;28;20472;-81
2021/12/09 01:17:09;;;;;;;34.60;27.50;;;6.00;1.00;8.10;99200.00;;;;5061269;28;20478;-78
2021/12/09 01:19:40;;;;;;;34.13;28.30;;;6.00;1.00;8.10;99197.00;;;;5039588;28;20555;-76
2021/12/09 01:22:08;;;;;;;33.37;28.43;;;5.90;1.00;8.00;99208.00;;;;5055023;28;20475;-75
2021/12/09 01:24:38;;;;;;;30.47;27.17;;;5.90;1.00;8.00;99184.00;;;;5055680;28;20448;-80
2021/12/09 01:27:07;;;;;;;33.80;27.20;;;5.90;1.00;8.10;99208.00;;;;5055764;28;20930;-76
2021/12/09 01:29:38;;;;;;;34.27;29.37;;;5.90;1.00;8.10;99220.00;;;;5043614;28;20453;-76
2021/12/09 01:32:11;;;;;;;34.63;28.50;;;5.90;1.00;8.10;99152.00;;;;5047994;28;20499;-76
2021/12/09 01:34:40;;;;;;;37.63;29.10;;;5.90;1.00;8.00;99225.00;;;;5055295;28;20958;-76
2021/12/09 01:37:09;;;;;;;37.40;32.53;;;5.80;1.00;8.00;99218.00;;;;5054460;28;20464;-76
2021/12/09 01:39:37;;;;;;;60.83;43.17;;;5.90;1.00;8.00;99211.00;;;;5057105;28;20513;-77
2021/12/09 01:42:06;;;;;;;61.40;42.53;;;5.90;1.00;7.90;99212.00;;;;5056503;28;20847;-76
2021/12/09 01:44:34;;;;;;;62.17;41.50;;;5.90;1.00;7.80;99171.00;;;;5059982;28;20455;-76
2021/12/09 01:47:02;;;;;;;58.80;41.33;;;5.90;1.00;7.80;99206.00;;;;5053823;28;20447;-77
2021/12/09 01:49:31;;;;;;;67.33;41.57;;;5.80;1.00;7.80;99227.00;;;;5057461;28;20446;-74
2021/12/09 01:52:01;;;;;;;55.13;38.17;;;5.80;1.00;7.80;99224.00;;;;5058005;28;20468;-75
2021/12/09 01:54:29;;;;;;;58.03;37.33;;;5.70;1.00;7.80;99220.00;;;;5056074;28;20521;-75
2021/12/09 01:56:57;;;;;;;70.63;41.60;;;5.70;1.00;7.80;99222.00;;;;5056829;28;20447;-75
2021/12/09 01:59:26;;;;;;;70.67;38.47;;;5.80;1.00;7.80;99216.00;;;;5064170;28;20466;-76
2021/12/09 02:01:54;;;;;;;64.80;39.70;;;5.80;1.00;7.80;99199.00;;;;5072287;28;20452;-77
2021/12/09 02:04:23;;;;;;;65.97;39.87;;;5.80;1.00;7.70;99208.00;;;;5070462;28;20454;-75
2021/12/09 02:06:52;;;;;;;67.40;40.37;;;5.70;1.00;7.60;99215.00;;;;5072035;28;20444;-76
2021/12/09 02:09:22;;;;;;;65.57;40.50;;;5.70;1.00;7.60;99219.00;;;;5072961;28;20450;-75
2021/12/09 02:11:50;;;;;;;64.43;38.80;;;5.60;1.00;7.60;99220.00;;;;5060761;28;20486;-75
2021/12/09 02:14:19;;;;;;;60.80;40.57;;;5.60;1.00;7.60;99219.00;;;;5055714;28;20459;-75
2021/12/09 02:16:47;;;;;;;55.00;37.80;;;5.60;1.00;7.70;99208.00;;;;5053614;28;20447;-77
2021/12/09 02:19:16;;;;;;;60.77;38.20;;;5.50;1.00;7.70;99167.00;;;;5053289;28;20459;-74
2021/12/09 02:21:46;;;;;;;53.43;35.80;;;5.60;1.00;7.70;99206.00;;;;5055574;28;20475;-76
2021/12/09 02:24:17;;;;;;;52.83;36.03;;;5.70;1.00;7.60;99211.00;;;;5054649;28;20940;-77
2021/12/09 02:26:49;;;;;;;41.57;32.40;;;5.70;1.00;7.70;99218.00;;;;5046968;28;20455;-76
2021/12/09 02:29:19;;;;;;;83.70;44.50;;;5.60;1.00;7.60;99213.00;;;;5047157;28;20452;-77
2021/12/09 02:31:50;;;;;;;64.67;38.90;;;5.50;1.00;7.50;99186.00;;;;5053095;28;20480;-77
2021/12/09 02:34:19;;;;;;;53.30;36.70;;;5.40;1.00;7.40;99220.00;;;;5054514;28;20436;-78
2021/12/09 02:36:50;;;;;;;56.23;36.87;;;5.30;1.00;7.30;99227.00;;;;5053667;28;20513;-78
2021/12/09 02:39:19;;;;;;;51.97;36.43;;;5.30;1.00;7.40;99220.00;;;;5033477;28;20508;-77
2021/12/09 02:41:51;;;;;;;64.77;38.60;;;5.20;1.00;7.30;99229.00;;;;5056411;28;20475;-77
2021/12/09 02:44:22;;;;;;;46.97;36.30;;;5.20;1.00;7.20;99232.00;;;;5039054;28;20458;-77
2021/12/09 02:46:55;;;;;;;52.90;38.00;;;5.20;1.00;7.10;99229.00;;;;5053377;28;20466;-77
2021/12/09 02:49:26;;;;;;;57.67;39.33;;;5.10;1.00;7.00;99230.00;;;;5052629;28;20890;-78
2021/12/09 02:51:58;;;;;;;93.07;49.13;;;4.90;1.00;6.90;99219.00;;;;5051085;28;20478;-77
2021/12/09 02:54:28;;;;;;;61.87;40.63;;;4.70;1.00;6.70;99226.00;;;;5052757;28;20424;-77
2021/12/09 02:57:01;;;;;;;61.33;38.97;;;4.60;1.00;6.60;99226.00;;;;5052494;28;20459;-77
2021/12/09 02:59:30;;;;;;;58.53;40.00;;;4.50;1.00;6.50;99194.00;;;;5052338;28;20486;-77
2021/12/09 03:02:00;;;;;;;60.13;38.47;;;4.40;1.00;6.50;99230.00;;;;5051397;28;20992;-76
2021/12/09 03:04:41;;;;;;;59.77;39.57;;;4.40;1.00;6.20;99217.00;;;;5051951;28;20448;-76
2021/12/09 03:07:15;;;;;;;56.50;38.67;;;4.30;1.00;6.30;99244.00;;;;5050796;28;20460;-77
2021/12/09 03:09:50;;;;;;;54.80;37.77;;;4.20;1.00;6.30;99242.00;;;;5052100;28;20551;-77
2021/12/09 03:12:21;;;;;;;46.40;35.40;;;4.20;1.00;6.20;99242.00;;;;5051871;28;20482;-76
2021/12/09 03:14:50;;;;;;;50.80;36.70;;;4.10;1.00;6.10;99233.00;;;;5038377;28;20813;-76
2021/12/09 03:17:20;;;;;;;46.40;34.50;;;4.10;1.00;6.10;99235.00;;;;5051919;28;20959;-76
2021/12/09 03:19:50;;;;;;;45.20;33.43;;;4.10;1.00;6.10;99215.00;;;;5053029;28;20788;-77
2021/12/09 03:22:19;;;;;;;43.70;33.47;;;4.10;1.00;6.00;99238.00;;;;5052834;28;20467;-76
2021/12/09 03:24:48;;;;;;;41.77;31.93;;;4.10;1.00;5.80;99241.00;;;;5056038;28;20444;-77
2021/12/09 03:27:17;;;;;;;41.73;33.07;;;4.20;1.00;5.80;99238.00;;;;5054645;28;20459;-76
2021/12/09 03:29:45;;;;;;;45.97;33.60;;;4.20;1.00;5.70;99265.00;;;;5055301;28;20459;-76
2021/12/09 03:32:19;;;;;;;44.47;33.33;;;4.30;1.00;5.90;99254.00;;;;5053687;28;20839;-76
2021/12/09 03:34:48;;;;;;;46.10;35.23;;;4.20;1.00;5.80;99263.00;;;;5055780;28;20543;-74
2021/12/09 03:37:22;;;;;;;45.90;34.67;;;4.20;1.00;5.70;99252.00;;;;5074225;28;20440;-76
2021/12/09 03:39:53;;;;;;;45.20;35.20;;;4.20;1.00;5.70;99249.00;;;;5057461;28;20496;-76
2021/12/09 03:42:26;;;;;;;44.20;33.70;;;4.20;1.00;5.70;99267.00;;;;5055226;28;20486;-76
2021/12/09 03:44:55;;;;;;;45.77;34.97;;;4.20;1.00;5.80;99280.00;;;;5048279;28;20451;-76
2021/12/09 03:47:27;;;;;;;39.30;31.70;;;4.20;1.00;5.80;99282.00;;;;5056006;28;20520;-75
2021/12/09 03:49:57;;;;;;;46.03;33.17;;;4.20;1.00;5.80;99305.00;;;;5049046;28;20478;-75
2021/12/09 03:52:28;;;;;;;39.80;29.30;;;4.20;1.00;5.70;99290.00;;;;5044083;28;20485;-76
2021/12/09 03:54:59;;;;;;;39.43;29.93;;;4.20;1.00;5.80;99304.00;;;;5054555;28;20983;-76
2021/12/09 03:57:28;;;;;;;34.47;27.70;;;4.30;1.00;5.80;99304.00;;;;5057163;28;20466;-76
2021/12/09 03:59:56;;;;;;;36.80;27.70;;;4.30;1.00;5.80;99317.00;;;;5056307;28;22198;-74
2021/12/09 04:02:25;;;;;;;35.63;26.37;;;4.30;1.00;5.70;99318.00;;;;5058322;28;20466;-76
2021/12/09 04:04:53;;;;;;;32.83;27.27;;;4.30;1.00;5.90;99308.00;;;;5055958;28;20538;-74
2021/12/09 04:07:22;;;;;;;31.60;26.33;;;4.30;1.00;6.00;99320.00;;;;5053583;28;20478;-75
2021/12/09 04:09:52;;;;;;;31.40;26.00;;;4.40;1.00;6.00;99300.00;;;;5054641;28;20459;-75
2021/12/09 04:12:20;;;;;;;30.60;25.10;;;4.40;1.00;6.10;99295.00;;;;5054277;28;20475;-77
2021/12/09 04:14:48;;;;;;;37.13;24.23;;;4.40;1.00;6.10;99289.00;;;;5054518;28;20454;-76
2021/12/09 04:17:17;;;;;;;27.30;22.80;;;4.40;1.00;6.30;99306.00;;;;5059061;28;20444;-76
2021/12/09 04:19:47;;;;;;;29.30;22.63;;;4.50;1.00;6.30;99298.00;;;;5046715;28;20452;-76
2021/12/09 04:22:18;;;;;;;28.17;21.83;;;4.50;1.00;6.30;99246.00;;;;5051054;28;20510;-76
2021/12/09 04:24:47;;;;;;;32.90;24.57;;;4.50;1.00;6.30;99297.00;;;;5053407;28;20451;-76
2021/12/09 04:27:17;;;;;;;30.80;22.30;;;4.50;1.00;6.30;99310.00;;;;5053982;28;21001;-75
2021/12/09 04:29:45;;;;;;;26.00;23.13;;;4.50;1.00;6.30;99316.00;;;;5053913;28;20445;-75
2021/12/09 04:32:14;;;;;;;30.13;21.83;;;4.50;1.00;6.30;99316.00;;;;5051134;28;20483;-76
2021/12/09 04:34:44;;;;;;;27.57;21.90;;;4.50;1.00;6.40;99305.00;;;;5051225;28;20455;-75
2021/12/09 04:37:13;;;;;;;26.17;20.67;;;4.50;1.00;6.40;99295.00;;;;5054450;28;20448;-75
2021/12/09 04:39:42;;;;;;;26.60;21.23;;;4.60;1.00;6.40;99313.00;;;;5050743;28;20482;-75
2021/12/09 04:42:10;;;;;;;25.87;20.33;;;4.50;1.00;6.30;99304.00;;;;5065301;28;20480;-74
2021/12/09 04:44:40;;;;;;;22.47;20.07;;;4.50;1.00;6.20;99292.00;;;;5074096;28;20821;-75
2021/12/09 04:47:08;;;;;;;24.87;20.27;;;4.50;1.00;6.20;99299.00;;;;5064659;28;20438;-76
2021/12/09 04:49:37;;;;;;;23.80;20.73;;;4.50;1.00;6.20;99304.00;;;;5077380;28;20458;-75
2021/12/09 04:52:07;;;;;;;26.23;20.27;;;4.50;1.00;6.20;99297.00;;;;5063809;28;20559;-74
2021/12/09 04:54:37;;;;;;;23.17;20.77;;;4.40;1.00;6.10;99295.00;;;;5053498;28;20464;-76
2021/12/09 04:57:06;;;;;;;26.20;19.70;;;4.50;1.00;6.20;99316.00;;;;5051986;28;20450;-74
2021/12/09 04:59:34;;;;;;;24.40;20.10;;;4.50;1.00;6.10;99307.00;;;;5032242;28;20471;-75
2021/12/09 05:02:08;;;;;;;22.53;17.50;;;4.50;1.00;6.10;99309.00;;;;5050108;28;20555;-75
2021/12/09 05:04:36;;;;;;;25.03;18.90;;;4.50;1.00;6.10;99305.00;;;;5050901;28;20459;-75
2021/12/09 05:07:05;;;;;;;21.60;17.70;;;4.40;1.00;6.10;99280.00;;;;5055303;28;20452;-76
2021/12/09 05:09:38;;;;;;;23.10;17.63;;;4.40;1.00;6.00;99313.00;;;;5049471;28;20451;-75
2021/12/09 05:12:08;;;;;;;21.53;18.20;;;4.40;1.00;6.00;99308.00;;;;5065696;28;20499;-75
2021/12/09 05:14:36;;;;;;;19.83;16.53;;;4.40;1.00;6.00;99313.00;;;;5060004;28;20448;-75
2021/12/09 05:17:06;;;;;;;20.17;16.53;;;4.40;1.00;6.00;99316.00;;;;5052122;28;20464;-76
2021/12/09 05:19:34;;;;;;;19.93;16.37;;;4.40;1.00;6.00;99319.00;;;;5052162;28;20456;-76
2021/12/09 05:22:03;;;;;;;22.63;16.23;;;4.30;1.00;6.10;99318.00;;;;5049989;28;20487;-76
2021/12/09 05:24:34;;;;;;;22.80;16.77;;;4.40;1.00;6.00;99313.00;;;;5048643;28;20456;-76
2021/12/09 05:27:03;;;;;;;21.60;15.30;;;4.40;1.00;6.10;99298.00;;;;5049662;28;20454;-76
2021/12/09 05:29:37;;;;;;;18.90;16.40;;;4.40;1.00;6.10;99306.00;;;;5050891;28;20476;-76
2021/12/09 05:32:10;;;;;;;20.73;16.30;;;4.40;1.00;6.20;99318.00;;;;5048374;28;20502;-76
2021/12/09 05:34:43;;;;;;;20.90;15.80;;;4.40;1.00;6.10;99318.00;;;;5052822;28;20431;-76
2021/12/09 05:37:15;;;;;;;22.30;16.70;;;4.40;1.00;6.10;99335.00;;;;5050633;28;20459;-76
2021/12/09 05:39:44;;;;;;;21.27;16.57;;;4.40;1.00;6.00;99333.00;;;;5052711;28;20456;-76
2021/12/09 05:42:14;;;;;;;17.50;14.30;;;4.40;1.00;5.90;99320.00;;;;5051883;28;20494;-76
2021/12/09 05:44:42;;;;;;;15.63;13.90;;;4.40;1.00;5.80;99339.00;;;;5032297;28;20460;-76
2021/12/09 05:47:13;;;;;;;17.27;14.13;;;4.30;1.00;5.80;99336.00;;;;5051382;28;20466;-77
2021/12/09 05:49:47;;;;;;;15.97;13.80;;;4.30;1.00;5.80;99346.00;;;;5054441;28;20447;-76
2021/12/09 05:52:16;;;;;;;19.13;13.90;;;4.30;1.00;5.80;99330.00;;;;5063558;28;20522;-75
2021/12/09 05:54:45;;;;;;;19.50;14.07;;;4.30;1.00;5.80;99339.00;;;;5063211;28;20459;-75
2021/12/09 05:57:13;;;;;;;21.03;15.03;;;4.30;1.00;5.60;99340.00;;;;5065367;28;20454;-76
2021/12/09 05:59:42;;;;;;;23.90;14.73;;;4.20;1.00;5.50;99348.00;;;;5074636;28;20454;-76
2021/12/09 06:02:15;;;;;;;16.97;14.50;;;4.10;1.00;5.40;99354.00;;;;5062402;28;20490;-76
2021/12/09 06:04:45;;;;;;;16.17;13.27;;;4.00;1.00;5.20;99352.00;;;;5055409;28;20458;-77
2021/12/09 06:07:14;;;;;;;17.83;14.20;;;3.90;1.00;5.10;99346.00;;;;5048921;28;20471;-77
2021/12/09 06:09:43;;;;;;;22.40;14.83;;;3.80;1.00;5.00;99338.00;;;;5050898;28;20729;-77
2021/12/09 06:12:12;;;;;;;17.73;15.50;;;3.90;1.00;5.00;99353.00;;;;5035395;28;20558;-77
2021/12/09 06:14:41;;;;;;;17.80;13.83;;;3.70;1.00;4.80;99340.00;;;;5058976;28;20871;-77
2021/12/09 06:17:10;;;;;;;18.50;15.60;;;3.70;1.00;4.80;99326.00;;;;5041454;28;20854;-77
2021/12/09 06:19:39;;;;;;;19.93;15.43;;;3.70;1.00;4.80;99340.00;;;;5051804;28;20486;-77
2021/12/09 06:22:08;;;;;;;20.77;15.53;;;3.60;1.00;4.80;99331.00;;;;5050605;28;21081;-76
2021/12/09 06:24:36;;;;;;;21.00;15.30;;;3.60;1.00;4.70;99343.00;;;;5033746;28;20948;-77
2021/12/09 06:27:06;;;;;;;17.90;14.13;;;3.50;1.00;4.70;99255.00;;;;5047566;28;20456;-76
2021/12/09 06:29:35;;;;;;;19.70;15.03;;;3.50;1.00;4.60;99355.00;;;;5051825;28;20456;-75
2021/12/09 06:32:05;;;;;;;20.07;14.23;;;3.50;1.00;4.60;99345.00;;;;5060595;28;20493;-74
2021/12/09 06:34:33;;;;;;;23.97;15.00;;;3.50;1.00;4.60;99359.00;;;;5061000;28;20467;-76
2021/12/09 06:37:09;;;;;;;20.27;14.80;;;3.50;1.00;4.70;99342.00;;;;5054783;28;20571;-76
2021/12/09 06:39:39;;;;;;;24.00;16.10;;;3.40;1.00;4.70;99319.00;;;;5054687;28;20440;-76
2021/12/09 06:42:08;;;;;;;18.60;14.30;;;3.40;1.00;4.70;99364.00;;;;5057426;28;20598;-76
2021/12/09 06:44:37;;;;;;;22.90;15.30;;;3.40;1.00;4.60;99367.00;;;;5037690;28;20539;-76
2021/12/09 06:47:05;;;;;;;17.83;14.43;;;3.40;1.00;4.60;99377.00;;;;5030470;28;20793;-76
2021/12/09 06:49:34;;;;;;;21.10;14.20;;;3.40;1.00;4.50;99373.00;;;;5032542;28;20452;-76
2021/12/09 06:52:02;;;;;;;16.90;14.47;;;3.40;1.00;4.50;99364.00;;;;5044244;28;20877;-76
2021/12/09 06:54:32;;;;;;;21.40;14.10;;;3.30;1.00;4.50;99389.00;;;;5051363;28;20448;-77
2021/12/09 06:57:01;;;;;;;18.63;14.90;;;3.30;1.00;4.40;99368.00;;;;5054601;28;20464;-74
2021/12/09 06:59:29;;;;;;;19.83;15.60;;;3.30;1.00;4.50;99378.00;;;;5054174;28;20455;-75
2021/12/09 07:01:57;;;;;;;19.63;14.50;;;3.30;1.00;4.40;99387.00;;;;5054177;28;20483;-75
2021/12/09 07:04:26;;;;;;;24.97;16.40;;;3.30;1.00;4.40;99380.00;;;;5056169;28;20456;-76
2021/12/09 07:06:54;;;;;;;20.60;16.00;;;3.20;1.00;4.40;99378.00;;;;5053811;28;20464;-77
2021/12/09 07:09:27;;;;;;;19.07;16.00;;;3.20;1.00;4.30;99388.00;;;;5038703;28;20543;-76
2021/12/09 07:11:58;;;;;;;23.40;15.50;;;3.30;1.00;4.30;99394.00;;;;5056796;28;20475;-76
2021/12/09 07:14:26;;;;;;;24.10;16.90;;;3.10;1.00;4.30;99391.00;;;;5057332;28;20459;-75
2021/12/09 07:17:00;;;;;;;20.97;15.63;;;3.10;1.00;4.30;99385.00;;;;5052642;28;20459;-76
2021/12/09 07:19:29;;;;;;;23.60;16.97;;;3.20;1.00;4.30;99393.00;;;;5056846;28;20462;-77
2021/12/09 07:21:57;;;;;;;20.63;16.70;;;3.20;1.00;4.30;99340.00;;;;5061244;28;20476;-75
2021/12/09 07:24:25;;;;;;;20.87;17.53;;;3.20;1.00;4.40;99414.00;;;;5073634;28;20531;-75
2021/12/09 07:26:54;;;;;;;19.20;16.27;;;3.20;1.00;4.30;99413.00;;;;5065801;28;20909;-75
2021/12/09 07:29:23;;;;;;;19.13;15.40;;;3.20;1.00;4.30;99419.00;;;;5077020;28;20432;-75
2021/12/09 07:31:52;;;;;;;25.10;16.30;;;3.20;1.00;4.40;99397.00;;;;5063994;28;20849;-75
2021/12/09 07:34:22;;;;;;;18.40;15.90;;;3.20;1.00;4.40;99417.00;;;;5038500;28;20521;-77
2021/12/09 07:36:50;;;;;;;22.67;16.23;;;3.20;1.00;4.50;99421.00;;;;5036283;28;20448;-76
2021/12/09 07:39:18;;;;;;;18.03;13.97;;;3.30;1.00;4.50;99423.00;;;;5054553;28;20452;-77
2021/12/09 07:41:46;;;;;;;19.43;14.90;;;3.30;1.00;4.30;99429.00;;;;5058366;28;20474;-76
2021/12/09 07:44:18;;;;;;;18.83;15.17;;;3.30;1.00;4.50;99435.00;;;;5052226;28;20582;-77
2021/12/09 07:46:51;;;;;;;18.50;13.93;;;3.30;1.00;4.40;99415.00;;;;5054854;28;20487;-75
2021/12/09 07:49:23;;;;;;;17.43;13.90;;;3.30;1.00;4.50;99414.00;;;;5052982;28;20856;-75
2021/12/09 07:51:52;;;;;;;18.57;13.67;;;3.30;1.00;4.40;99442.00;;;;5052725;28;20495;-76
2021/12/09 07:54:21;;;;;;;17.30;14.50;;;3.30;1.00;4.50;99445.00;;;;5054089;28;20459;-75
2021/12/09 07:56:49;;;;;;;17.77;13.77;;;3.30;1.00;4.50;99435.00;;;;5051973;28;20466;-76
2021/12/09 07:59:18;;;;;;;18.97;13.23;;;3.30;1.00;4.50;99440.00;;;;5051702;28;20467;-76
2021/12/09 08:01:48;;;;;;;16.70;13.00;;;3.40;1.00;4.10;99443.00;;;;5053281;28;20475;-76
2021/12/09 08:04:18;;;;;;;15.33;12.30;;;3.40;1.00;4.60;99435.00;;;;5051406;28;20479;-76
2021/12/09 08:06:46;;;;;;;16.53;13.67;;;3.50;1.00;4.80;99449.00;;;;5050824;28;20452;-76
2021/12/09 08:09:15;;;;;;;16.80;12.80;;;3.50;1.00;4.80;99447.00;;;;5051695;28;20480;-77
2021/12/09 08:11:44;;;;;;;12.93;10.90;;;3.50;1.00;4.80;99385.00;;;;5054255;28;20479;-76
2021/12/09 08:14:15;;;;;;;16.17;12.03;;;3.60;1.00;4.80;99417.00;;;;5036069;28;20475;-75
2021/12/09 08:16:44;;;;;;;15.37;11.53;;;3.70;1.00;4.90;99446.00;;;;5053357;28;20456;-76
2021/12/09 08:19:16;;;;;;;14.30;12.10;;;3.60;1.00;4.90;99435.00;;;;5054908;28;20463;-76
2021/12/09 08:21:44;;;;;;;18.53;11.87;;;3.70;1.00;4.90;99439.00;;;;5066581;28;20492;-76
2021/12/09 08:24:13;;;;;;;15.07;12.10;;;3.80;1.00;5.00;99428.00;;;;5067152;28;21544;-76
2021/12/09 08:26:42;;;;;;;16.70;11.50;;;3.80;1.00;5.00;99437.00;;;;5037502;28;20456;-75
2021/12/09 08:29:10;;;;;;;17.53;11.97;;;3.80;1.00;5.10;99433.00;;;;5059628;28;20452;-76
2021/12/09 08:31:38;;;;;;;14.70;11.83;;;3.90;1.00;5.20;99430.00;;;;5060066;28;20532;-76
2021/12/09 08:34:17;;;;;;;15.83;10.93;;;3.90;1.00;5.10;99419.00;;;;5060668;28;20456;-76
2021/12/09 08:36:54;;;;;;;13.97;11.40;;;4.00;1.00;5.20;99436.00;;;;5052920;28;20455;-75
2021/12/09 08:39:23;;;;;;;14.93;11.57;;;4.00;1.00;5.40;99433.00;;;;5029076;28;21043;-76
2021/12/09 08:41:52;;;;;;;18.43;13.20;;;4.10;1.00;5.30;99433.00;;;;5052188;28;20529;-76
2021/12/09 08:44:20;;;;;;;15.07;11.73;;;4.20;1.00;5.20;99430.00;;;;5051212;28;21118;-76
2021/12/09 08:46:49;;;;;;;17.33;13.03;;;4.10;1.00;5.20;99441.00;;;;5053964;28;20864;-76
2021/12/09 08:49:19;;;;;;;16.50;12.63;;;4.10;1.00;5.20;99447.00;;;;5036347;28;20551;-75
2021/12/09 08:51:48;;;;;;;15.67;12.80;;;4.10;1.00;5.30;99448.00;;;;5052338;28;20476;-77
2021/12/09 08:54:17;;;;;;;14.67;11.67;;;4.20;1.00;5.30;99453.00;;;;5052738;28;20795;-77
2021/12/09 08:56:50;;;;;;;17.97;13.70;;;4.20;1.00;5.20;99388.00;;;;5052136;28;20511;-75
2021/12/09 08:59:19;;;;;;;16.53;12.00;;;4.20;1.00;5.40;99453.00;;;;5052839;28;20458;-76
2021/12/09 09:02:07;;;;;;;19.17;13.00;;;4.20;1.00;5.30;99459.00;;;;5048760;28;20480;-76
2021/12/09 09:04:38;;;;;;;19.00;12.87;;;4.20;1.00;5.50;99448.00;;;;5053238;28;20480;-76
2021/12/09 09:07:09;;;;;;;16.13;12.60;;;4.20;1.00;5.50;99459.00;;;;5051023;28;20466;-76
2021/12/09 09:09:38;;;;;;;15.93;11.63;;;4.30;1.00;5.40;99462.00;;;;5047222;28;20452;-76
2021/12/09 09:12:10;;;;;;;16.87;12.80;;;4.20;1.00;5.40;99471.00;;;;5052223;28;20487;-77
2021/12/09 09:14:38;;;;;;;15.20;13.33;;;4.20;1.00;5.50;99471.00;;;;5051544;28;20934;-76
2021/12/09 09:17:07;;;;;;;15.83;12.33;;;4.20;1.00;5.70;99439.00;;;;5049322;28;20459;-76
2021/12/09 09:19:37;;;;;;;15.70;13.47;;;4.30;1.00;5.70;99466.00;;;;5053542;28;20549;-77
2021/12/09 09:22:06;;;;;;;17.50;12.90;;;4.40;1.00;5.70;99484.00;;;;5051839;28;20486;-76
2021/12/09 09:24:35;;;;;;;17.77;13.17;;;4.40;1.00;5.60;99468.00;;;;5050247;28;20967;-75
2021/12/09 09:27:04;;;;;;;14.53;11.30;;;4.40;1.00;5.60;99480.00;;;;5051990;28;20773;-75
2021/12/09 09:29:34;;;;;;;14.57;12.33;;;4.40;1.00;5.60;99465.00;;;;5050713;28;20492;-76
2021/12/09 09:32:02;;;;;;;14.40;12.70;;;4.40;1.00;5.70;99483.00;;;;5051873;28;20484;-75
2021/12/09 09:34:31;;;;;;;15.27;11.83;;;4.40;1.00;5.80;99466.00;;;;5071088;28;20448;-76
2021/12/09 09:37:01;;;;;;;12.90;11.70;;;4.50;1.00;5.50;99469.00;;;;5072679;28;20508;-76
2021/12/09 09:39:41;;;;;;;13.80;11.80;;;4.50;1.00;5.50;99452.00;;;;5072044;28;20539;-75
2021/12/09 09:42:34;;;;;;;13.33;11.83;;;4.40;1.00;5.60;99476.00;;;;5073557;28;20479;-76
2021/12/09 09:45:04;;;;;;;13.50;11.07;;;4.40;1.00;5.50;99468.00;;;;5054192;28;20468;-76
2021/12/09 09:47:34;;;;;;;12.63;11.10;;;4.40;1.00;5.50;99468.00;;;;5037474;28;20491;-76
2021/12/09 09:50:04;;;;;;;16.67;12.50;;;4.40;1.00;5.60;99458.00;;;;5052529;28;20529;-76
2021/12/09 09:52:34;;;;;;;16.73;12.17;;;4.50;1.00;5.60;99457.00;;;;5053206;28;20484;-74
2021/12/09 09:55:09;;;;;;;13.63;11.10;;;4.50;1.00;5.80;99471.00;;;;5052529;28;20452;-75
2021/12/09 09:57:38;;;;;;;13.03;11.10;;;4.60;1.00;5.70;99460.00;;;;5036694;28;20538;-75
2021/12/09 10:00:12;;;;;;;15.10;11.80;;;4.60;1.00;6.10;99465.00;;;;5047496;28;20487;-75
2021/12/09 10:02:41;;;;;;;12.10;10.90;;;4.80;1.00;5.80;99423.00;;;;5059035;28;20527;-75
2021/12/09 10:05:10;;;;;;;13.50;11.50;;;4.90;1.00;5.80;99468.00;;;;5063510;28;20524;-75
2021/12/09 10:07:40;;;;;;;15.03;9.50;;;4.70;1.00;6.00;99472.00;;;;5059531;28;20460;-75
2021/12/09 10:10:10;;;;;;;13.60;10.53;;;4.70;1.00;6.10;99474.00;;;;5071152;28;20452;-75
2021/12/09 10:12:56;;;;;;;14.20;10.30;;;4.80;1.00;6.10;99414.00;;;;5061868;28;20475;-75
2021/12/09 10:15:46;;;;;;;11.87;10.70;;;4.90;1.00;5.90;99485.00;;;;5045256;28;20456;-75
2021/12/09 10:18:32;;;;;;;16.20;11.10;;;4.90;1.00;6.00;99477.00;;;;5049531;28;20455;-75
2021/12/09 10:21:01;;;;;;;16.67;11.77;;;4.80;1.00;6.10;99478.00;;;;5050256;28;20463;-74
2021/12/09 10:23:36;;;;;;;13.73;10.83;;;4.90;1.00;5.90;99489.00;;;;5033913;28;20479;-76
2021/12/09 10:26:19;;;;;;;14.53;10.23;;;4.80;1.00;5.80;99476.00;;;;5048774;28;20447;-75
2021/12/09 10:28:53;;;;;;;13.90;10.53;;;4.70;1.00;5.60;99466.00;;;;5052749;28;20478;-74
2021/12/09 10:31:27;;;;;;;12.47;10.33;;;4.70;1.00;5.70;99470.00;;;;5033171;28;20483;-75
2021/12/09 10:34:12;;;;;;;12.93;10.83;;;4.60;1.00;5.70;99472.00;;;;5049368;28;20469;-75
2021/12/09 10:36:48;;;;;;;11.47;10.33;;;4.70;1.00;5.70;99480.00;;;;5048790;28;20456;-76
2021/12/09 10:39:31;;;;;;;14.20;10.70;;;4.70;1.00;5.80;99473.00;;;;5049866;28;20451;-75
2021/12/09 10:42:06;;;;;;;13.53;9.47;;;4.80;1.00;5.80;99473.00;;;;5059527;28;21000;-76
2021/12/09 10:44:45;;;;;;;14.07;10.00;;;4.70;1.00;5.70;99458.00;;;;5036848;28;20475;-75
2021/12/09 10:47:22;;;;;;;14.80;9.90;;;4.60;1.00;5.80;99467.00;;;;5052357;28;20462;-76
2021/12/09 10:50:07;;;;;;;15.20;10.23;;;4.70;1.00;5.80;99468.00;;;;5053634;28;20463;-75
2021/12/09 10:52:42;;;;;;;15.03;10.80;;;4.80;1.00;5.90;99448.00;;;;5035521;28;20491;-76
2021/12/09 10:55:24;;;;;;;13.67;10.70;;;4.80;1.00;6.00;99442.00;;;;5051904;28;20535;-76
2021/12/09 10:58:04;;;;;;;11.83;10.23;;;4.90;1.00;6.20;99474.00;;;;5047599;28;20448;-76
2021/12/09 11:00:41;;;;;;;12.37;9.27;;;5.00;1.00;6.30;99476.00;;;;5051494;28;20455;-75
2021/12/09 11:03:18;;;;;;;12.00;8.10;;;5.10;1.00;6.60;99466.00;;;;5050089;28;20821;-76
2021/12/09 11:05:53;;;;;;;13.30;8.20;;;5.30;1.00;6.60;99470.00;;;;5055053;28;20562;-77
2021/12/09 11:08:31;;;;;;;11.17;7.23;;;5.60;1.00;6.80;99468.00;;;;5052165;28;20479;-79
2021/12/09 11:11:13;;;;;;;11.80;7.07;;;5.60;1.00;6.90;99471.00;;;;5051066;28;20451;-75
2021/12/09 11:13:48;;;;;;;8.70;7.20;;;5.70;1.00;6.80;99474.00;;;;5050789;28;20491;-76
2021/12/09 11:16:25;;;;;;;9.03;7.03;;;5.70;1.00;7.00;99465.00;;;;5048027;28;20447;-76
2021/12/09 11:18:59;;;;;;;10.00;7.17;;;5.70;1.00;6.90;99483.00;;;;5051867;28;20448;-76